sensor_id;sensor_type;location;lat;lon;timestamp;temperature;humidity
26583;DHT22;14230;45.382;10.998;2023-05-10T00:00:04;16.40;99.90
26583;DHT22;14230;45.382;10.998;2023-05-10T00:02:39;16.40;99.90
26583;DHT22;14230;45.382;10.998;2023-05-10T00:05:07;16.40;99.90
26583;DHT22;14230;45.382;10.998;2023-05-10T00:07:35;16.40;99.90
26583;DHT22;14230;45.382;10.998;2023-05-10T00:10:03;16.50;99.90
26583;DHT22;14230;45.382;10.998;2023-05-10T00:12:30;16.50;99.90
26583;DHT22;14230;45.382;10.998;2023-05-10T00:14:58;16.50;99.90
26583;DHT22;14230;45.382;10.998;2023-05-10T00:17:25;16.50;99.90
26583;DHT22;14230;45.382;10.998;2023-05-10T00:19:52;16.50;99.90
26583;DHT22;14230;45.382;10.998;2023-05-10T00:22:20;16.50;99.90
26583;DHT22;14230;45.382;10.998;2023-05-10T00:24:48;16.50;99.90
26583;DHT22;14230;45.382;10.998;2023-05-10T00:27:15;16.50;99.90
26583;DHT22;14230;45.382;10.998;2023-05-10T00:29:43;16.50;99.90
26583;DHT22;14230;45.382;10.998;2023-05-10T00:32:11;16.50;99.90
26583;DHT22;14230;45.382;10.998;2023-05-10T00:34:39;16.40;99.90
26583;DHT22;14230;45.382;10.998;2023-05-10T00:37:06;16.40;99.90
26583;DHT22;14230;45.382;10.998;2023-05-10T00:39:34;16.40;99.90
26583;DHT22;14230;45.382;10.998;2023-05-10T00:42:01;16.30;99.90
26583;DHT22;14230;45.382;10.998;2023-05-10T00:44:29;16.30;99.90
26583;DHT22;14230;45.382;10.998;2023-05-10T00:46:58;16.30;99.90
26583;DHT22;14230;45.382;10.998;2023-05-10T00:49:26;16.20;99.90
26583;DHT22;14230;45.382;10.998;2023-05-10T00:51:54;16.20;99.90
26583;DHT22;14230;45.382;10.998;2023-05-10T00:54:21;16.10;99.90
26583;DHT22;14230;45.382;10.998;2023-05-10T00:56:51;16.00;99.90
26583;DHT22;14230;45.382;10.998;2023-05-10T00:59:19;15.90;99.90
26583;DHT22;14230;45.382;10.998;2023-05-10T01:01:47;15.90;99.90
26583;DHT22;14230;45.382;10.998;2023-05-10T01:04:15;15.80;99.90
26583;DHT22;14230;45.382;10.998;2023-05-10T01:06:43;15.80;99.90
26583;DHT22;14230;45.382;10.998;2023-05-10T01:09:10;15.80;99.90
26583;DHT22;14230;45.382;10.998;2023-05-10T01:11:39;15.80;99.90
26583;DHT22;14230;45.382;10.998;2023-05-10T01:14:07;15.70;99.90
26583;DHT22;14230;45.382;10.998;2023-05-10T01:16:38;15.80;99.90
26583;DHT22;14230;45.382;10.998;2023-05-10T01:19:23;15.80;99.90
26583;DHT22;14230;45.382;10.998;2023-05-10T01:25:11;15.70;99.90
26583;DHT22;14230;45.382;10.998;2023-05-10T01:33:29;15.50;99.90
26583;DHT22;14230;45.382;10.998;2023-05-10T01:46:50;15.40;99.90
26583;DHT22;14230;45.382;10.998;2023-05-10T01:49:26;15.40;99.90
26583;DHT22;14230;45.382;10.998;2023-05-10T01:52:04;15.30;99.90
26583;DHT22;14230;45.382;10.998;2023-05-10T01:54:33;15.30;99.90
26583;DHT22;14230;45.382;10.998;2023-05-10T01:57:05;15.30;99.90
26583;DHT22;14230;45.382;10.998;2023-05-10T01:59:36;15.20;99.90
26583;DHT22;14230;45.382;10.998;2023-05-10T02:02:08;15.10;99.90
26583;DHT22;14230;45.382;10.998;2023-05-10T02:04:40;15.10;99.90
26583;DHT22;14230;45.382;10.998;2023-05-10T02:07:08;15.10;99.90
26583;DHT22;14230;45.382;10.998;2023-05-10T02:09:37;15.00;99.90
26583;DHT22;14230;45.382;10.998;2023-05-10T02:12:06;15.00;99.90
26583;DHT22;14230;45.382;10.998;2023-05-10T02:14:37;15.00;99.90
26583;DHT22;14230;45.382;10.998;2023-05-10T02:17:07;14.80;99.90
26583;DHT22;14230;45.382;10.998;2023-05-10T02:19:38;14.70;99.90
26583;DHT22;14230;45.382;10.998;2023-05-10T02:22:07;14.70;99.90
26583;DHT22;14230;45.382;10.998;2023-05-10T02:24:36;14.70;99.90
26583;DHT22;14230;45.382;10.998;2023-05-10T02:27:05;14.60;99.90
26583;DHT22;14230;45.382;10.998;2023-05-10T02:29:33;14.50;99.90
26583;DHT22;14230;45.382;10.998;2023-05-10T02:32:01;14.40;99.90
26583;DHT22;14230;45.382;10.998;2023-05-10T02:34:31;14.10;99.90
26583;DHT22;14230;45.382;10.998;2023-05-10T02:36:59;14.00;99.90
26583;DHT22;14230;45.382;10.998;2023-05-10T02:39:29;13.70;99.90
26583;DHT22;14230;45.382;10.998;2023-05-10T02:41:59;13.60;99.90
26583;DHT22;14230;45.382;10.998;2023-05-10T02:44:29;13.50;99.90
26583;DHT22;14230;45.382;10.998;2023-05-10T02:46:58;13.40;99.90
26583;DHT22;14230;45.382;10.998;2023-05-10T02:49:26;13.30;99.90
26583;DHT22;14230;45.382;10.998;2023-05-10T02:51:57;13.30;99.90
26583;DHT22;14230;45.382;10.998;2023-05-10T02:54:31;13.20;99.90
26583;DHT22;14230;45.382;10.998;2023-05-10T02:57:04;13.10;99.90
26583;DHT22;14230;45.382;10.998;2023-05-10T02:59:32;13.20;99.90
26583;DHT22;14230;45.382;10.998;2023-05-10T03:01:59;13.10;99.90
26583;DHT22;14230;45.382;10.998;2023-05-10T03:04:27;13.00;99.90
26583;DHT22;14230;45.382;10.998;2023-05-10T03:06:57;13.00;99.90
26583;DHT22;14230;45.382;10.998;2023-05-10T03:09:24;13.00;99.90
26583;DHT22;14230;45.382;10.998;2023-05-10T03:12:11;12.90;99.90
26583;DHT22;14230;45.382;10.998;2023-05-10T03:14:57;12.90;99.90
26583;DHT22;14230;45.382;10.998;2023-05-10T03:17:55;12.80;99.90
26583;DHT22;14230;45.382;10.998;2023-05-10T03:20:29;12.80;99.90
26583;DHT22;14230;45.382;10.998;2023-05-10T03:23:04;12.80;99.90
26583;DHT22;14230;45.382;10.998;2023-05-10T03:25:35;12.70;99.90
26583;DHT22;14230;45.382;10.998;2023-05-10T03:28:04;12.70;99.90
26583;DHT22;14230;45.382;10.998;2023-05-10T03:30:33;12.70;99.90
26583;DHT22;14230;45.382;10.998;2023-05-10T03:33:05;12.60;99.90
26583;DHT22;14230;45.382;10.998;2023-05-10T03:35:37;12.60;99.90
26583;DHT22;14230;45.382;10.998;2023-05-10T03:38:05;12.60;99.90
26583;DHT22;14230;45.382;10.998;2023-05-10T03:40:33;12.50;99.90
26583;DHT22;14230;45.382;10.998;2023-05-10T03:43:00;12.50;99.90
26583;DHT22;14230;45.382;10.998;2023-05-10T03:45:28;12.50;99.90
26583;DHT22;14230;45.382;10.998;2023-05-10T03:47:57;12.40;99.90
26583;DHT22;14230;45.382;10.998;2023-05-10T03:50:25;12.50;99.90
26583;DHT22;14230;45.382;10.998;2023-05-10T03:52:53;12.40;99.90
26583;DHT22;14230;45.382;10.998;2023-05-10T03:55:21;12.40;99.90
26583;DHT22;14230;45.382;10.998;2023-05-10T03:57:50;12.40;99.90
26583;DHT22;14230;45.382;10.998;2023-05-10T04:00:18;12.40;99.90
26583;DHT22;14230;45.382;10.998;2023-05-10T04:02:49;12.30;99.90
26583;DHT22;14230;45.382;10.998;2023-05-10T04:05:19;12.30;99.90
26583;DHT22;14230;45.382;10.998;2023-05-10T04:07:46;12.30;99.90
26583;DHT22;14230;45.382;10.998;2023-05-10T04:10:16;12.30;99.90
26583;DHT22;14230;45.382;10.998;2023-05-10T04:12:44;12.30;99.90
26583;DHT22;14230;45.382;10.998;2023-05-10T04:15:12;12.30;99.90
26583;DHT22;14230;45.382;10.998;2023-05-10T04:17:42;12.30;99.90
26583;DHT22;14230;45.382;10.998;2023-05-10T04:20:12;12.30;99.90
26583;DHT22;14230;45.382;10.998;2023-05-10T04:22:41;12.30;99.90
26583;DHT22;14230;45.382;10.998;2023-05-10T04:25:08;12.30;99.90
26583;DHT22;14230;45.382;10.998;2023-05-10T04:27:36;12.30;99.90
26583;DHT22;14230;45.382;10.998;2023-05-10T04:30:04;12.20;99.90
26583;DHT22;14230;45.382;10.998;2023-05-10T04:32:32;12.20;99.90
26583;DHT22;14230;45.382;10.998;2023-05-10T04:34:59;12.20;99.90
26583;DHT22;14230;45.382;10.998;2023-05-10T04:37:27;12.20;99.90
26583;DHT22;14230;45.382;10.998;2023-05-10T04:39:54;12.20;99.90
26583;DHT22;14230;45.382;10.998;2023-05-10T04:42:21;12.20;99.90
26583;DHT22;14230;45.382;10.998;2023-05-10T04:44:49;12.10;99.90
26583;DHT22;14230;45.382;10.998;2023-05-10T04:47:16;12.10;99.90
26583;DHT22;14230;45.382;10.998;2023-05-10T04:49:44;12.10;99.90
26583;DHT22;14230;45.382;10.998;2023-05-10T04:52:11;12.10;99.90
26583;DHT22;14230;45.382;10.998;2023-05-10T04:54:38;12.10;99.90
26583;DHT22;14230;45.382;10.998;2023-05-10T04:57:06;12.10;99.90
26583;DHT22;14230;45.382;10.998;2023-05-10T04:59:35;12.10;99.90
26583;DHT22;14230;45.382;10.998;2023-05-10T05:02:04;12.10;99.90
26583;DHT22;14230;45.382;10.998;2023-05-10T05:04:32;12.00;99.90
26583;DHT22;14230;45.382;10.998;2023-05-10T05:06:59;12.00;99.90
26583;DHT22;14230;45.382;10.998;2023-05-10T05:09:26;12.00;99.90
26583;DHT22;14230;45.382;10.998;2023-05-10T05:11:54;12.10;99.90
26583;DHT22;14230;45.382;10.998;2023-05-10T05:14:22;12.10;99.90
26583;DHT22;14230;45.382;10.998;2023-05-10T05:16:49;12.10;99.90
26583;DHT22;14230;45.382;10.998;2023-05-10T05:19:16;12.10;99.90
26583;DHT22;14230;45.382;10.998;2023-05-10T05:21:44;12.10;99.90
26583;DHT22;14230;45.382;10.998;2023-05-10T05:24:11;12.10;99.90
26583;DHT22;14230;45.382;10.998;2023-05-10T05:26:39;12.20;99.90
26583;DHT22;14230;45.382;10.998;2023-05-10T05:29:07;12.10;99.90
26583;DHT22;14230;45.382;10.998;2023-05-10T05:31:34;12.10;99.90
26583;DHT22;14230;45.382;10.998;2023-05-10T05:34:02;12.10;99.90
26583;DHT22;14230;45.382;10.998;2023-05-10T05:36:29;12.10;99.90
26583;DHT22;14230;45.382;10.998;2023-05-10T05:38:59;12.10;99.90
26583;DHT22;14230;45.382;10.998;2023-05-10T05:41:27;12.20;99.90
26583;DHT22;14230;45.382;10.998;2023-05-10T05:43:54;12.20;99.90
26583;DHT22;14230;45.382;10.998;2023-05-10T05:46:22;12.20;99.90
26583;DHT22;14230;45.382;10.998;2023-05-10T05:48:49;12.20;99.90
26583;DHT22;14230;45.382;10.998;2023-05-10T05:51:17;12.20;99.90
26583;DHT22;14230;45.382;10.998;2023-05-10T05:53:44;12.20;99.90
26583;DHT22;14230;45.382;10.998;2023-05-10T05:56:12;12.20;99.90
26583;DHT22;14230;45.382;10.998;2023-05-10T05:58:39;12.20;99.90
26583;DHT22;14230;45.382;10.998;2023-05-10T06:01:07;12.20;99.90
26583;DHT22;14230;45.382;10.998;2023-05-10T06:03:37;12.20;99.90
26583;DHT22;14230;45.382;10.998;2023-05-10T06:06:05;12.20;99.90
26583;DHT22;14230;45.382;10.998;2023-05-10T06:08:32;12.20;99.90
26583;DHT22;14230;45.382;10.998;2023-05-10T06:11:01;12.20;99.90
26583;DHT22;14230;45.382;10.998;2023-05-10T06:13:28;12.20;99.90
26583;DHT22;14230;45.382;10.998;2023-05-10T06:15:59;12.10;99.90
26583;DHT22;14230;45.382;10.998;2023-05-10T06:18:27;12.10;99.90
26583;DHT22;14230;45.382;10.998;2023-05-10T06:20:55;12.10;99.90
26583;DHT22;14230;45.382;10.998;2023-05-10T06:23:22;12.20;99.90
26583;DHT22;14230;45.382;10.998;2023-05-10T06:25:50;12.20;99.90
26583;DHT22;14230;45.382;10.998;2023-05-10T06:28:17;12.20;99.90
26583;DHT22;14230;45.382;10.998;2023-05-10T06:30:45;12.20;99.90
26583;DHT22;14230;45.382;10.998;2023-05-10T06:33:12;12.10;99.90
26583;DHT22;14230;45.382;10.998;2023-05-10T06:35:40;12.10;99.90
26583;DHT22;14230;45.382;10.998;2023-05-10T06:38:07;12.10;99.90
26583;DHT22;14230;45.382;10.998;2023-05-10T06:40:34;12.10;99.90
26583;DHT22;14230;45.382;10.998;2023-05-10T06:43:03;12.00;99.90
26583;DHT22;14230;45.382;10.998;2023-05-10T06:45:30;12.10;99.90
26583;DHT22;14230;45.382;10.998;2023-05-10T06:47:58;12.00;99.90
26583;DHT22;14230;45.382;10.998;2023-05-10T06:50:25;12.00;99.90
26583;DHT22;14230;45.382;10.998;2023-05-10T06:52:55;12.00;99.90
26583;DHT22;14230;45.382;10.998;2023-05-10T06:55:22;12.00;99.90
26583;DHT22;14230;45.382;10.998;2023-05-10T06:57:50;12.00;99.90
26583;DHT22;14230;45.382;10.998;2023-05-10T07:00:19;12.00;99.90
26583;DHT22;14230;45.382;10.998;2023-05-10T07:02:47;12.10;99.90
26583;DHT22;14230;45.382;10.998;2023-05-10T07:05:14;12.10;99.90
26583;DHT22;14230;45.382;10.998;2023-05-10T07:07:42;12.10;99.90
26583;DHT22;14230;45.382;10.998;2023-05-10T07:10:10;12.10;99.90
26583;DHT22;14230;45.382;10.998;2023-05-10T07:12:37;12.00;99.90
26583;DHT22;14230;45.382;10.998;2023-05-10T07:15:06;12.00;99.90
26583;DHT22;14230;45.382;10.998;2023-05-10T07:17:33;12.00;99.90
26583;DHT22;14230;45.382;10.998;2023-05-10T07:20:01;12.00;99.90
26583;DHT22;14230;45.382;10.998;2023-05-10T07:22:28;11.90;99.90
26583;DHT22;14230;45.382;10.998;2023-05-10T07:24:56;11.90;99.90
26583;DHT22;14230;45.382;10.998;2023-05-10T07:27:23;12.00;99.90
26583;DHT22;14230;45.382;10.998;2023-05-10T07:29:51;12.00;99.90
26583;DHT22;14230;45.382;10.998;2023-05-10T07:32:18;12.00;99.90
26583;DHT22;14230;45.382;10.998;2023-05-10T07:34:45;12.00;99.90
26583;DHT22;14230;45.382;10.998;2023-05-10T07:37:13;12.00;99.90
26583;DHT22;14230;45.382;10.998;2023-05-10T07:39:40;12.00;99.90
26583;DHT22;14230;45.382;10.998;2023-05-10T07:42:08;12.00;99.90
26583;DHT22;14230;45.382;10.998;2023-05-10T07:44:35;11.90;99.90
26583;DHT22;14230;45.382;10.998;2023-05-10T07:47:03;11.90;99.90
26583;DHT22;14230;45.382;10.998;2023-05-10T07:49:30;11.90;99.90
26583;DHT22;14230;45.382;10.998;2023-05-10T07:51:58;11.90;99.90
26583;DHT22;14230;45.382;10.998;2023-05-10T07:54:25;11.90;99.90
26583;DHT22;14230;45.382;10.998;2023-05-10T07:56:53;11.80;99.90
26583;DHT22;14230;45.382;10.998;2023-05-10T07:59:20;11.80;99.90
26583;DHT22;14230;45.382;10.998;2023-05-10T08:01:48;11.70;99.90
26583;DHT22;14230;45.382;10.998;2023-05-10T08:04:15;11.80;99.90
26583;DHT22;14230;45.382;10.998;2023-05-10T08:06:43;11.80;99.90
26583;DHT22;14230;45.382;10.998;2023-05-10T08:09:10;11.80;99.90
26583;DHT22;14230;45.382;10.998;2023-05-10T08:11:38;11.80;99.90
26583;DHT22;14230;45.382;10.998;2023-05-10T08:14:05;11.80;99.90
26583;DHT22;14230;45.382;10.998;2023-05-10T08:16:33;11.80;99.90
26583;DHT22;14230;45.382;10.998;2023-05-10T08:19:01;11.80;99.90
26583;DHT22;14230;45.382;10.998;2023-05-10T08:21:29;11.80;99.90
26583;DHT22;14230;45.382;10.998;2023-05-10T08:23:58;11.80;99.90
26583;DHT22;14230;45.382;10.998;2023-05-10T08:26:25;11.90;99.90
26583;DHT22;14230;45.382;10.998;2023-05-10T08:28:54;11.90;99.90
26583;DHT22;14230;45.382;10.998;2023-05-10T08:31:22;11.90;99.90
26583;DHT22;14230;45.382;10.998;2023-05-10T08:33:50;12.00;99.90
26583;DHT22;14230;45.382;10.998;2023-05-10T08:36:19;12.00;99.90
26583;DHT22;14230;45.382;10.998;2023-05-10T08:38:51;12.00;99.90
26583;DHT22;14230;45.382;10.998;2023-05-10T08:41:20;12.00;99.90
26583;DHT22;14230;45.382;10.998;2023-05-10T08:43:50;12.00;99.90
26583;DHT22;14230;45.382;10.998;2023-05-10T08:46:19;12.00;99.90
26583;DHT22;14230;45.382;10.998;2023-05-10T08:48:48;11.90;99.90
26583;DHT22;14230;45.382;10.998;2023-05-10T08:51:18;12.00;99.90
26583;DHT22;14230;45.382;10.998;2023-05-10T08:53:46;11.90;99.90
26583;DHT22;14230;45.382;10.998;2023-05-10T08:56:15;11.90;99.90
26583;DHT22;14230;45.382;10.998;2023-05-10T08:58:43;12.00;99.90
26583;DHT22;14230;45.382;10.998;2023-05-10T09:01:11;12.00;99.90
26583;DHT22;14230;45.382;10.998;2023-05-10T09:03:40;12.00;99.90
26583;DHT22;14230;45.382;10.998;2023-05-10T09:06:07;12.00;99.90
26583;DHT22;14230;45.382;10.998;2023-05-10T09:08:36;11.90;99.90
26583;DHT22;14230;45.382;10.998;2023-05-10T09:11:05;12.00;99.90
26583;DHT22;14230;45.382;10.998;2023-05-10T09:13:33;12.00;99.90
26583;DHT22;14230;45.382;10.998;2023-05-10T09:16:01;12.00;99.90
26583;DHT22;14230;45.382;10.998;2023-05-10T09:18:46;12.00;99.90
26583;DHT22;14230;45.382;10.998;2023-05-10T09:21:14;11.90;99.90
26583;DHT22;14230;45.382;10.998;2023-05-10T09:23:45;12.00;99.90
26583;DHT22;14230;45.382;10.998;2023-05-10T09:26:15;12.00;99.90
26583;DHT22;14230;45.382;10.998;2023-05-10T09:28:54;12.10;99.90
26583;DHT22;14230;45.382;10.998;2023-05-10T09:31:23;12.10;99.90
26583;DHT22;14230;45.382;10.998;2023-05-10T09:33:53;12.10;99.90
26583;DHT22;14230;45.382;10.998;2023-05-10T09:36:20;12.10;99.90
26583;DHT22;14230;45.382;10.998;2023-05-10T09:38:50;12.20;99.90
26583;DHT22;14230;45.382;10.998;2023-05-10T09:41:22;12.20;99.90
26583;DHT22;14230;45.382;10.998;2023-05-10T09:43:55;12.30;99.90
26583;DHT22;14230;45.382;10.998;2023-05-10T09:46:23;12.30;99.90
26583;DHT22;14230;45.382;10.998;2023-05-10T09:48:51;12.40;99.90
26583;DHT22;14230;45.382;10.998;2023-05-10T09:51:23;12.40;99.90
26583;DHT22;14230;45.382;10.998;2023-05-10T09:56:38;12.40;99.90
26583;DHT22;14230;45.382;10.998;2023-05-10T09:59:10;12.50;99.90
26583;DHT22;14230;45.382;10.998;2023-05-10T10:01:38;12.60;99.90
26583;DHT22;14230;45.382;10.998;2023-05-10T10:04:07;12.60;99.90
26583;DHT22;14230;45.382;10.998;2023-05-10T10:06:37;12.70;99.90
26583;DHT22;14230;45.382;10.998;2023-05-10T10:09:06;12.70;99.90
26583;DHT22;14230;45.382;10.998;2023-05-10T10:11:37;12.80;99.90
26583;DHT22;14230;45.382;10.998;2023-05-10T10:14:05;12.90;99.90
26583;DHT22;14230;45.382;10.998;2023-05-10T10:16:33;13.10;99.90
26583;DHT22;14230;45.382;10.998;2023-05-10T10:19:00;13.10;99.90
26583;DHT22;14230;45.382;10.998;2023-05-10T10:21:28;13.20;99.90
26583;DHT22;14230;45.382;10.998;2023-05-10T10:23:55;13.20;99.90
26583;DHT22;14230;45.382;10.998;2023-05-10T10:26:23;13.20;99.90
26583;DHT22;14230;45.382;10.998;2023-05-10T10:32:18;13.30;99.90
26583;DHT22;14230;45.382;10.998;2023-05-10T10:34:48;13.40;99.90
26583;DHT22;14230;45.382;10.998;2023-05-10T10:37:15;13.40;99.90
26583;DHT22;14230;45.382;10.998;2023-05-10T10:39:43;13.40;99.90
26583;DHT22;14230;45.382;10.998;2023-05-10T10:42:11;13.40;99.90
26583;DHT22;14230;45.382;10.998;2023-05-10T10:44:38;13.40;99.90
26583;DHT22;14230;45.382;10.998;2023-05-10T10:55:09;13.50;99.90
26583;DHT22;14230;45.382;10.998;2023-05-10T10:57:52;13.40;99.90
26583;DHT22;14230;45.382;10.998;2023-05-10T11:00:28;13.50;99.90
26583;DHT22;14230;45.382;10.998;2023-05-10T11:03:06;13.60;99.90
26583;DHT22;14230;45.382;10.998;2023-05-10T11:08:27;13.70;99.90
26583;DHT22;14230;45.382;10.998;2023-05-10T11:13:44;13.80;99.90
26583;DHT22;14230;45.382;10.998;2023-05-10T11:16:20;13.80;99.90
26583;DHT22;14230;45.382;10.998;2023-05-10T11:19:07;13.80;99.90
26583;DHT22;14230;45.382;10.998;2023-05-10T11:24:30;13.80;99.90
26583;DHT22;14230;45.382;10.998;2023-05-10T11:26:58;13.70;99.90
26583;DHT22;14230;45.382;10.998;2023-05-10T11:29:25;13.70;99.90
26583;DHT22;14230;45.382;10.998;2023-05-10T11:31:57;13.60;99.90
26583;DHT22;14230;45.382;10.998;2023-05-10T11:34:29;13.50;99.90
26583;DHT22;14230;45.382;10.998;2023-05-10T11:36:57;13.50;99.90
26583;DHT22;14230;45.382;10.998;2023-05-10T11:39:30;13.50;99.90
26583;DHT22;14230;45.382;10.998;2023-05-10T11:41:57;13.50;99.90
26583;DHT22;14230;45.382;10.998;2023-05-10T11:44:32;13.50;99.90
26583;DHT22;14230;45.382;10.998;2023-05-10T11:47:00;13.60;99.90
26583;DHT22;14230;45.382;10.998;2023-05-10T11:49:28;13.70;99.90
26583;DHT22;14230;45.382;10.998;2023-05-10T11:52:07;13.70;99.90
26583;DHT22;14230;45.382;10.998;2023-05-10T11:54:35;13.70;99.90
26583;DHT22;14230;45.382;10.998;2023-05-10T11:57:03;13.70;99.90
26583;DHT22;14230;45.382;10.998;2023-05-10T11:59:30;13.70;99.90
26583;DHT22;14230;45.382;10.998;2023-05-10T12:01:58;13.70;99.90
26583;DHT22;14230;45.382;10.998;2023-05-10T12:04:26;13.80;99.90
26583;DHT22;14230;45.382;10.998;2023-05-10T12:06:56;13.80;99.90
26583;DHT22;14230;45.382;10.998;2023-05-10T12:09:24;13.80;99.90
26583;DHT22;14230;45.382;10.998;2023-05-10T12:12:10;13.70;99.90
26583;DHT22;14230;45.382;10.998;2023-05-10T12:14:37;13.70;99.90
26583;DHT22;14230;45.382;10.998;2023-05-10T12:17:05;13.60;99.90
26583;DHT22;14230;45.382;10.998;2023-05-10T12:19:41;13.60;99.90
26583;DHT22;14230;45.382;10.998;2023-05-10T12:22:08;13.60;99.90
26583;DHT22;14230;45.382;10.998;2023-05-10T12:24:39;13.50;99.90
26583;DHT22;14230;45.382;10.998;2023-05-10T12:27:08;13.50;99.90
26583;DHT22;14230;45.382;10.998;2023-05-10T12:29:36;13.50;99.90
26583;DHT22;14230;45.382;10.998;2023-05-10T12:32:03;13.70;99.90
26583;DHT22;14230;45.382;10.998;2023-05-10T12:34:34;13.80;99.90
26583;DHT22;14230;45.382;10.998;2023-05-10T12:37:03;13.80;99.90
26583;DHT22;14230;45.382;10.998;2023-05-10T12:39:42;13.90;99.90
26583;DHT22;14230;45.382;10.998;2023-05-10T12:42:10;13.90;99.90
26583;DHT22;14230;45.382;10.998;2023-05-10T12:44:38;14.00;99.90
26583;DHT22;14230;45.382;10.998;2023-05-10T12:47:06;14.00;99.90
26583;DHT22;14230;45.382;10.998;2023-05-10T12:49:33;14.00;99.90
26583;DHT22;14230;45.382;10.998;2023-05-10T12:52:01;14.00;99.90
26583;DHT22;14230;45.382;10.998;2023-05-10T12:54:29;14.00;99.90
26583;DHT22;14230;45.382;10.998;2023-05-10T12:56:56;14.00;99.90
26583;DHT22;14230;45.382;10.998;2023-05-10T12:59:24;14.00;99.90
26583;DHT22;14230;45.382;10.998;2023-05-10T13:01:51;14.00;99.90
26583;DHT22;14230;45.382;10.998;2023-05-10T13:04:18;14.00;99.90
26583;DHT22;14230;45.382;10.998;2023-05-10T13:06:46;13.90;99.90
26583;DHT22;14230;45.382;10.998;2023-05-10T13:09:13;13.90;99.90
26583;DHT22;14230;45.382;10.998;2023-05-10T13:11:41;13.90;99.90
26583;DHT22;14230;45.382;10.998;2023-05-10T13:14:08;13.90;99.90
26583;DHT22;14230;45.382;10.998;2023-05-10T13:16:36;14.00;99.90
26583;DHT22;14230;45.382;10.998;2023-05-10T13:19:03;14.00;99.90
26583;DHT22;14230;45.382;10.998;2023-05-10T13:21:31;14.00;99.90
26583;DHT22;14230;45.382;10.998;2023-05-10T13:23:59;14.10;99.90
26583;DHT22;14230;45.382;10.998;2023-05-10T13:26:27;14.20;99.90
26583;DHT22;14230;45.382;10.998;2023-05-10T13:28:55;14.20;99.90
26583;DHT22;14230;45.382;10.998;2023-05-10T13:31:22;14.20;99.90
26583;DHT22;14230;45.382;10.998;2023-05-10T13:33:50;14.30;99.90
26583;DHT22;14230;45.382;10.998;2023-05-10T13:36:18;14.30;99.90
26583;DHT22;14230;45.382;10.998;2023-05-10T13:38:45;14.30;99.90
26583;DHT22;14230;45.382;10.998;2023-05-10T13:41:12;14.40;99.90
26583;DHT22;14230;45.382;10.998;2023-05-10T13:43:40;14.40;99.90
26583;DHT22;14230;45.382;10.998;2023-05-10T13:46:07;14.50;99.90
26583;DHT22;14230;45.382;10.998;2023-05-10T13:48:35;14.50;99.90
26583;DHT22;14230;45.382;10.998;2023-05-10T13:51:05;14.60;99.90
26583;DHT22;14230;45.382;10.998;2023-05-10T13:53:33;14.50;99.90
26583;DHT22;14230;45.382;10.998;2023-05-10T13:56:00;14.50;99.90
26583;DHT22;14230;45.382;10.998;2023-05-10T13:58:29;14.50;99.90
26583;DHT22;14230;45.382;10.998;2023-05-10T14:00:56;14.50;99.90
26583;DHT22;14230;45.382;10.998;2023-05-10T14:03:24;14.50;99.90
26583;DHT22;14230;45.382;10.998;2023-05-10T14:05:51;14.50;99.90
26583;DHT22;14230;45.382;10.998;2023-05-10T14:08:19;14.50;99.90
26583;DHT22;14230;45.382;10.998;2023-05-10T14:10:47;14.50;99.90
26583;DHT22;14230;45.382;10.998;2023-05-10T14:13:15;14.50;99.90
26583;DHT22;14230;45.382;10.998;2023-05-10T14:15:43;14.50;99.90
26583;DHT22;14230;45.382;10.998;2023-05-10T14:18:10;14.50;99.90
26583;DHT22;14230;45.382;10.998;2023-05-10T14:20:38;14.60;99.90
26583;DHT22;14230;45.382;10.998;2023-05-10T14:23:05;14.60;99.90
26583;DHT22;14230;45.382;10.998;2023-05-10T14:25:35;14.60;99.90
26583;DHT22;14230;45.382;10.998;2023-05-10T14:28:03;14.70;99.90
26583;DHT22;14230;45.382;10.998;2023-05-10T14:30:31;14.80;99.90
26583;DHT22;14230;45.382;10.998;2023-05-10T14:33:01;14.90;99.90
26583;DHT22;14230;45.382;10.998;2023-05-10T14:35:29;15.00;99.90
26583;DHT22;14230;45.382;10.998;2023-05-10T14:37:58;15.10;99.90
26583;DHT22;14230;45.382;10.998;2023-05-10T14:40:25;15.10;99.90
26583;DHT22;14230;45.382;10.998;2023-05-10T14:42:53;15.10;99.90
26583;DHT22;14230;45.382;10.998;2023-05-10T14:45:20;15.10;99.90
26583;DHT22;14230;45.382;10.998;2023-05-10T14:47:49;15.00;99.90
26583;DHT22;14230;45.382;10.998;2023-05-10T14:50:17;15.00;99.90
26583;DHT22;14230;45.382;10.998;2023-05-10T14:53:01;15.00;99.90
26583;DHT22;14230;45.382;10.998;2023-05-10T14:55:29;15.00;99.90
26583;DHT22;14230;45.382;10.998;2023-05-10T14:57:57;15.00;99.90
26583;DHT22;14230;45.382;10.998;2023-05-10T15:00:26;15.00;99.90
26583;DHT22;14230;45.382;10.998;2023-05-10T15:02:54;15.00;99.90
26583;DHT22;14230;45.382;10.998;2023-05-10T15:05:22;14.90;99.90
26583;DHT22;14230;45.382;10.998;2023-05-10T15:07:50;14.80;99.90
26583;DHT22;14230;45.382;10.998;2023-05-10T15:10:18;14.90;99.90
26583;DHT22;14230;45.382;10.998;2023-05-10T15:12:45;14.80;99.90
26583;DHT22;14230;45.382;10.998;2023-05-10T15:15:12;14.80;99.90
26583;DHT22;14230;45.382;10.998;2023-05-10T15:17:40;14.70;99.90
26583;DHT22;14230;45.382;10.998;2023-05-10T15:20:08;14.50;99.90
26583;DHT22;14230;45.382;10.998;2023-05-10T15:22:38;14.50;99.90
26583;DHT22;14230;45.382;10.998;2023-05-10T15:25:05;14.50;99.90
26583;DHT22;14230;45.382;10.998;2023-05-10T15:27:33;14.40;99.90
26583;DHT22;14230;45.382;10.998;2023-05-10T15:30:01;14.40;99.90
26583;DHT22;14230;45.382;10.998;2023-05-10T15:32:28;14.40;99.90
26583;DHT22;14230;45.382;10.998;2023-05-10T15:34:58;14.30;99.90
26583;DHT22;14230;45.382;10.998;2023-05-10T15:37:26;14.30;99.90
26583;DHT22;14230;45.382;10.998;2023-05-10T15:39:54;14.30;99.90
26583;DHT22;14230;45.382;10.998;2023-05-10T15:42:32;14.30;99.90
26583;DHT22;14230;45.382;10.998;2023-05-10T15:45:00;14.30;99.90
26583;DHT22;14230;45.382;10.998;2023-05-10T15:47:29;14.20;99.90
26583;DHT22;14230;45.382;10.998;2023-05-10T15:49:58;14.30;99.90
26583;DHT22;14230;45.382;10.998;2023-05-10T15:52:25;14.20;99.90
26583;DHT22;14230;45.382;10.998;2023-05-10T15:54:53;14.30;99.90
26583;DHT22;14230;45.382;10.998;2023-05-10T15:57:20;14.30;99.90
26583;DHT22;14230;45.382;10.998;2023-05-10T15:59:48;14.30;99.90
26583;DHT22;14230;45.382;10.998;2023-05-10T16:02:15;14.30;99.90
26583;DHT22;14230;45.382;10.998;2023-05-10T16:04:45;14.20;99.90
26583;DHT22;14230;45.382;10.998;2023-05-10T16:07:12;14.20;99.90